This is the latest recevied weather packets stored in our database for station/object EA1FWM-12. If no packets are shown the sender has not sent any weather packets the latest 10 day(s).
| Time | Temp. | Humidity | Pressure | Rain* | Wind** | Luminosity | Snow |
|---|---|---|---|---|---|---|---|
| 1787565816 | 21.11° C | 61% | 1012.8 hPa | - | - | - | - |
| 1787564916 | 20.56° C | 63% | 1013.2 hPa | - | - | - | - |
| 1787564017 | 21.11° C | 62% | 1013.3 hPa | - | - | - | - |
| 1787562218 | 20.56° C | 64% | 1013.2 hPa | - | - | - | - |
| 1787558619 | 20° C | 67% | 1013.5 hPa | - | - | - | - |
| 1787557718 | 20° C | 69% | 1013.4 hPa | - | - | - | - |
| 1787556818 | 18.89° C | 72% | 1013.5 hPa | - | - | - | - |
| 1787555918 | 16.67° C | 77% | 1013.5 hPa | - | - | - | - |
| 1787555018 | 15.56° C | 76% | 1013.7 hPa | - | - | - | - |
| 1787554119 | 15.56° C | 75% | 1013.9 hPa | - | - | - | - |
| 1787553220 | 15.56° C | 74% | 1014 hPa | - | - | - | - |
| 1787552319 | 15.56° C | 75% | 1013.8 hPa | - | - | - | - |
| 1787551684 | 15.56° C | 74% | 1013.7 hPa | - | - | - | - |
| 1787551420 | 15.56° C | 74% | 1013.7 hPa | - | - | - | - |
| 1787550520 | 15.56° C | 74% | 1013.9 hPa | - | - | - | - |
| 1787549621 | 16.11° C | 74% | 1013.9 hPa | - | - | - | - |
| 1787548721 | 15.56° C | 73% | 1014 hPa | - | - | - | - |
| 1787547820 | 15.56° C | 74% | 1014 hPa | - | - | - | - |
| 1787546920 | 15.56° C | 73% | 1014 hPa | - | - | - | - |
| 1787546021 | 15.56° C | 74% | 1013.8 hPa | - | - | - | - |
| 1787545121 | 15° C | 74% | 1013.6 hPa | - | - | - | - |
| 1787544222 | 15.56° C | 69% | 1013.7 hPa | - | - | - | - |
| 1787543322 | 16.11° C | 66% | 1014 hPa | - | - | - | - |
| 1787542423 | 16.67° C | 65% | 1014.3 hPa | - | - | - | - |
| 1787541523 | 16.67° C | 65% | 1014.2 hPa | - | - | - | - |
* Rain since midnight (hover to see other rain measurements)
** Current wind speed in m/s (hover to see current wind gust speed)